Time;durP1;ratioP1;P1;durP2;ratioP2;P2;SDS_P1;SDS_P2;PMS_P1;PMS_P2;Temp;Humidity;BMP_temperature;BMP_pressure;BME280_temperature;BME280_humidity;BME280_pressure;Samples;Min_cycle;Max_cycle;Signal;HPM_P1;HPM_P2
2023/06/07 00:04:06;;;;;;;8.50;2.80;;;26.60;51.40;;;;;;10493518;28;20080;-23
2023/06/07 00:09:08;;;;;;;4.22;2.35;;;26.50;51.40;;;;;;10494687;28;20059;-24
2023/06/07 00:14:11;;;;;;;5.60;2.65;;;26.40;51.50;;;;;;10496405;28;20477;-25
2023/06/07 00:19:13;;;;;;;3.15;2.38;;;26.40;51.50;;;;;;10487054;28;20140;-24
2023/06/07 00:24:15;;;;;;;5.47;3.22;;;26.30;51.50;;;;;;10484097;28;20049;-24
2023/06/07 00:29:18;;;;;;;4.13;2.17;;;26.30;51.40;;;;;;10485505;28;20068;-24
2023/06/07 00:34:20;;;;;;;3.03;2.03;;;26.30;51.60;;;;;;10489721;28;20075;-25
2023/06/07 00:39:24;;;;;;;4.05;2.67;;;26.20;51.60;;;;;;10488608;28;20079;-32
2023/06/07 00:44:27;;;;;;;6.53;2.55;;;26.20;51.60;;;;;;10498973;28;20394;-24
2023/06/07 00:49:30;;;;;;;3.15;2.00;;;26.20;51.60;;;;;;10490702;28;20071;-24
2023/06/07 00:54:31;;;;;;;3.45;2.22;;;26.10;51.70;;;;;;10485883;28;20547;-24
2023/06/07 00:59:36;;;;;;;4.18;2.90;;;26.00;52.20;;;;;;10492570;28;20087;-24
2023/06/07 01:04:39;;;;;;;3.65;2.05;;;26.10;51.60;;;;;;10489800;28;20481;-24
2023/06/07 01:09:41;;;;;;;2.88;1.55;;;26.00;51.70;;;;;;10493131;28;20617;-24
2023/06/07 01:14:45;;;;;;;4.47;2.25;;;25.90;51.70;;;;;;10489488;28;20121;-24
2023/06/07 01:19:52;;;;;;;3.58;2.45;;;25.90;51.90;;;;;;10485160;28;20088;-24
2023/06/07 01:24:56;;;;;;;15.05;2.58;;;25.90;51.90;;;;;;10483544;28;20447;-24
2023/06/07 01:29:59;;;;;;;4.38;2.75;;;25.80;51.90;;;;;;10489034;28;20500;-24
2023/06/07 01:35:03;;;;;;;6.53;3.25;;;25.80;51.90;;;;;;10476112;28;20037;-24
2023/06/07 01:40:08;;;;;;;5.18;2.60;;;25.80;52.00;;;;;;10489326;28;20045;-24
2023/06/07 01:45:11;;;;;;;3.10;2.08;;;25.70;52.00;;;;;;10489498;28;22066;-24
2023/06/07 01:50:20;;;;;;;3.72;2.30;;;25.70;52.00;;;;;;10492826;28;20129;-24
2023/06/07 01:55:24;;;;;;;3.10;1.90;;;25.60;51.90;;;;;;10482171;28;20048;-25
2023/06/07 02:00:29;;;;;;;4.78;2.25;;;25.60;52.00;;;;;;10488655;28;20454;-24
2023/06/07 02:05:35;;;;;;;4.88;2.25;;;25.60;52.00;;;;;;10479317;28;20152;-24
2023/06/07 02:10:39;;;;;;;5.15;1.67;;;25.50;52.00;;;;;;10490363;28;20142;-24
2023/06/07 02:15:45;;;;;;;4.47;2.08;;;25.50;52.00;;;;;;10487086;28;20135;-23
2023/06/07 02:20:47;;;;;;;3.33;1.85;;;25.50;51.90;;;;;;10488498;28;20121;-24
2023/06/07 02:25:51;;;;;;;3.60;1.85;;;25.40;51.90;;;;;;10481486;28;20057;-24
2023/06/07 02:30:55;;;;;;;4.95;2.20;;;25.40;52.10;;;;;;10479260;28;20072;-25
2023/06/07 02:35:57;;;;;;;3.30;2.08;;;25.40;51.90;;;;;;10486596;28;20139;-23
2023/06/07 02:41:00;;;;;;;2.47;2.00;;;25.30;52.00;;;;;;10501896;28;20138;-24
2023/06/07 02:46:02;;;;;;;4.28;2.20;;;25.30;51.90;;;;;;10481439;28;20123;-24
2023/06/07 02:51:04;;;;;;;2.38;1.70;;;25.20;52.00;;;;;;10475305;28;20060;-23
2023/06/07 02:56:09;;;;;;;3.28;1.70;;;25.20;52.10;;;;;;10477506;28;20037;-23
2023/06/07 03:15:32;;;;;;;2.83;1.85;;;25.20;51.50;;;;;;10511833;27;20114;-23
2023/06/07 03:20:34;;;;;;;4.38;2.05;;;25.10;52.00;;;;;;10520239;28;20462;-23
2023/06/07 03:25:36;;;;;;;3.70;1.83;;;25.00;51.90;;;;;;10513255;28;20045;-22
2023/06/07 03:30:40;;;;;;;2.55;1.65;;;25.00;52.10;;;;;;10525888;28;20457;-22
2023/06/07 03:35:44;;;;;;;2.47;1.70;;;25.00;52.20;;;;;;10524635;28;20522;-22
2023/06/07 03:40:46;;;;;;;2.92;1.52;;;25.00;52.20;;;;;;10524515;28;20074;-22
2023/06/07 03:45:49;;;;;;;3.63;1.85;;;24.90;52.20;;;;;;10529415;28;20068;-22
2023/06/07 03:50:51;;;;;;;3.72;1.65;;;25.00;52.20;;;;;;10529018;28;20079;-24
2023/06/07 03:55:54;;;;;;;2.17;1.40;;;24.80;52.10;;;;;;10521768;28;20067;-22
2023/06/07 04:00:58;;;;;;;3.30;1.80;;;24.90;52.20;;;;;;10518627;28;20054;-22
2023/06/07 04:06:01;;;;;;;3.60;1.73;;;24.90;52.30;;;;;;10523927;28;20052;-22
2023/06/07 04:11:02;;;;;;;4.63;1.70;;;24.80;52.70;;;;;;10523901;28;20052;-21
2023/06/07 04:16:05;;;;;;;;;;;24.80;52.20;;;;;;10531417;28;20131;-22
2023/06/07 04:21:07;;;;;;;2.38;1.50;;;24.80;52.20;;;;;;10522803;28;20034;-23
2023/06/07 04:26:09;;;;;;;3.97;1.80;;;24.70;52.40;;;;;;10497726;28;20036;-23
2023/06/07 04:31:12;;;;;;;8.50;2.38;;;24.70;52.00;;;;;;10484928;28;20550;-23
2023/06/07 04:36:18;;;;;;;4.32;1.58;;;24.70;52.30;;;;;;10491291;28;20594;-22
2023/06/07 04:41:20;;;;;;;3.38;1.80;;;24.70;52.20;;;;;;10488062;28;20103;-22
2023/06/07 04:46:26;;;;;;;4.07;1.83;;;24.70;52.30;;;;;;10486000;28;20070;-23
2023/06/07 04:51:29;;;;;;;2.30;1.55;;;24.70;51.80;;;;;;10489607;28;20493;-23
2023/06/07 04:56:31;;;;;;;4.88;1.55;;;24.60;52.00;;;;;;10498110;28;20489;-22
2023/06/07 05:01:35;;;;;;;4.43;2.10;;;24.60;52.10;;;;;;10485273;28;20428;-24
2023/06/07 05:06:37;;;;;;;4.97;1.67;;;24.60;52.10;;;;;;10494984;28;20048;-23
2023/06/07 05:11:39;;;;;;;2.35;1.48;;;24.60;52.00;;;;;;10486722;28;20052;-23
2023/06/07 05:16:44;;;;;;;4.78;1.45;;;24.60;51.90;;;;;;10489393;28;20040;-22
2023/06/07 05:21:46;;;;;;;3.20;1.63;;;24.60;52.00;;;;;;10481805;28;20048;-22
2023/06/07 05:26:48;;;;;;;4.05;1.95;;;24.50;52.10;;;;;;10488044;28;20676;-22
2023/06/07 05:31:51;;;;;;;4.38;1.73;;;24.50;52.00;;;;;;10487782;28;20127;-22
2023/06/07 05:36:55;;;;;;;4.97;1.30;;;24.50;52.00;;;;;;10488609;28;20530;-22
2023/06/07 05:41:57;;;;;;;2.78;1.50;;;24.60;52.00;;;;;;10487017;28;20564;-22
2023/06/07 05:47:00;;;;;;;3.95;1.55;;;24.60;52.10;;;;;;10484334;28;20048;-23
2023/06/07 05:52:02;;;;;;;5.18;1.70;;;24.60;52.00;;;;;;10490343;28;20076;-23
2023/06/07 05:57:04;;;;;;;6.13;2.25;;;24.60;51.90;;;;;;10484816;28;20052;-22
2023/06/07 06:02:07;;;;;;;3.40;1.38;;;24.70;51.90;;;;;;10487544;28;20045;-22
2023/06/07 06:07:10;;;;;;;7.78;1.80;;;24.70;51.80;;;;;;10490577;28;20144;-23
2023/06/07 06:12:11;;;;;;;3.92;1.98;;;24.70;51.70;;;;;;10489588;28;20163;-23
2023/06/07 06:17:15;;;;;;;4.20;1.80;;;24.70;51.70;;;;;;10473336;28;20124;-22
2023/06/07 06:22:17;;;;;;;4.40;1.70;;;24.70;51.80;;;;;;10467303;28;20045;-24
2023/06/07 06:27:20;;;;;;;1.90;1.23;;;24.70;51.70;;;;;;10477469;28;20615;-23
2023/06/07 06:32:24;;;;;;;4.35;1.98;;;24.70;51.60;;;;;;10475630;28;20417;-25
2023/06/07 06:37:25;;;;;;;7.32;2.70;;;24.70;51.60;;;;;;10471559;28;20052;-23
2023/06/07 06:42:27;;;;;;;;;;;24.70;51.50;;;;;;10475668;28;20084;-24
2023/06/07 06:47:30;;;;;;;4.90;3.00;;;24.70;51.50;;;;;;10469085;28;19974;-22
2023/06/07 06:52:32;;;;;;;10.20;3.08;;;24.80;51.40;;;;;;10463926;28;20473;-23
2023/06/07 06:57:34;;;;;;;;;;;24.80;51.40;;;;;;10493038;28;20477;-24
2023/06/07 07:02:37;;;;;;;6.63;3.20;;;24.80;51.40;;;;;;10483858;28;20456;-24
2023/06/07 07:07:39;;;;;;;6.80;1.90;;;24.90;51.40;;;;;;10483623;28;20070;-23
2023/06/07 07:12:43;;;;;;;3.55;1.83;;;25.00;51.40;;;;;;10488762;28;20049;-23
2023/06/07 07:17:47;;;;;;;4.57;1.92;;;25.00;51.60;;;;;;10477432;28;20686;-24
2023/06/07 07:22:49;;;;;;;3.80;1.52;;;25.00;51.50;;;;;;10482488;28;20072;-22
2023/06/07 07:27:51;;;;;;;4.00;1.52;;;25.10;51.60;;;;;;10475659;28;20140;-23
2023/06/07 07:32:55;;;;;;;2.88;1.40;;;25.00;51.40;;;;;;10485731;28;20408;-24
2023/06/07 07:38:00;;;;;;;2.38;1.58;;;25.10;51.40;;;;;;10488178;28;20055;-23
2023/06/07 07:43:02;;;;;;;4.20;1.70;;;25.10;51.30;;;;;;10496946;28;20045;-24
2023/06/07 07:48:06;;;;;;;3.33;1.60;;;25.10;51.20;;;;;;10497616;28;20049;-23
2023/06/07 07:53:08;;;;;;;3.25;2.05;;;25.20;51.20;;;;;;10497452;28;20084;-23
2023/06/07 07:58:09;;;;;;;3.42;1.98;;;25.10;51.40;;;;;;10489069;28;20044;-24
2023/06/07 08:03:13;;;;;;;6.97;1.58;;;25.20;51.10;;;;;;10487921;28;20048;-24
2023/06/07 08:08:16;;;;;;;6.07;1.60;;;25.20;51.10;;;;;;10495349;28;20047;-23
2023/06/07 08:13:18;;;;;;;4.43;2.10;;;24.80;51.80;;;;;;10497469;28;20060;-22
2023/06/07 08:18:21;;;;;;;5.70;1.67;;;25.20;51.00;;;;;;10493774;28;20072;-23
2023/06/07 08:23:23;;;;;;;2.50;1.60;;;25.00;51.20;;;;;;10493560;28;20131;-22
2023/06/07 08:28:25;;;;;;;5.45;1.85;;;25.20;50.90;;;;;;10494821;28;20040;-23
2023/06/07 08:33:28;;;;;;;4.50;2.03;;;25.10;51.10;;;;;;10498801;28;20053;-23
2023/06/07 08:38:30;;;;;;;3.90;1.52;;;25.30;50.90;;;;;;10477535;28;20033;-23
2023/06/07 08:43:32;;;;;;;5.22;1.30;;;25.40;50.70;;;;;;10472627;28;20041;-24
2023/06/07 08:48:39;;;;;;;3.80;1.60;;;25.40;50.70;;;;;;10484257;28;20091;-24
2023/06/07 08:53:48;;;;;;;6.10;1.60;;;25.50;51.20;;;;;;10473745;28;20084;-23
2023/06/07 08:58:51;;;;;;;4.57;1.42;;;25.20;50.90;;;;;;10488326;28;20045;-22
2023/06/07 09:03:55;;;;;;;10.77;2.17;;;25.50;50.70;;;;;;10477121;28;20049;-23
2023/06/07 09:08:57;;;;;;;4.45;1.90;;;25.50;50.50;;;;;;10488712;28;20051;-23
2023/06/07 09:13:59;;;;;;;6.32;1.95;;;25.00;52.00;;;;;;10491669;28;20147;-23
2023/06/07 09:19:02;;;;;;;3.42;1.60;;;24.30;52.50;;;;;;10492428;28;20079;-23
2023/06/07 09:24:04;;;;;;;5.88;1.77;;;25.10;51.40;;;;;;10488845;28;20473;-22
2023/06/07 09:29:07;;;;;;;9.00;2.10;;;24.50;52.60;;;;;;10473198;28;20076;-23
2023/06/07 09:34:26;;;;;;;10.75;3.03;;;24.60;52.20;;;;;;10490039;28;20051;-23
2023/06/07 09:39:29;;;;;;;11.98;3.30;;;23.80;52.50;;;;;;10479392;28;20626;-23
2023/06/07 09:44:31;;;;;;;10.18;2.90;;;23.00;55.50;;;;;;10482514;28;20048;-23
2023/06/07 09:49:37;;;;;;;11.63;3.38;;;23.40;54.70;;;;;;10490347;28;20044;-23
2023/06/07 09:54:40;;;;;;;6.60;2.50;;;22.50;56.70;;;;;;10487504;28;20459;-24
2023/06/07 09:59:57;;;;;;;3.75;1.90;;;24.00;54.20;;;;;;10488382;28;20098;-23
2023/06/07 10:05:01;;;;;;;5.88;1.90;;;24.80;52.80;;;;;;10473271;28;20083;-24
2023/06/07 10:10:03;;;;;;;6.57;2.03;;;25.20;52.00;;;;;;10486739;28;20499;-23
2023/06/07 10:15:08;;;;;;;10.02;2.92;;;25.50;51.80;;;;;;10488206;28;20496;-24
2023/06/07 10:20:16;;;;;;;5.28;2.45;;;24.50;53.20;;;;;;10502452;28;20128;-25
2023/06/07 10:25:21;;;;;;;9.00;2.70;;;24.30;53.60;;;;;;10485429;28;20048;-23
2023/06/07 10:30:25;;;;;;;7.53;2.47;;;24.50;53.20;;;;;;10489026;28;20523;-22
2023/06/07 10:35:30;;;;;;;8.85;2.60;;;24.20;53.50;;;;;;10487412;28;20056;-21
2023/06/07 10:40:32;;;;;;;15.20;3.97;;;24.60;53.50;;;;;;10487970;28;20071;-23
2023/06/07 10:45:34;;;;;;;6.00;2.28;;;24.00;54.00;;;;;;10488081;28;21660;-23
2023/06/07 10:50:50;;;;;;;13.45;2.65;;;25.40;52.00;;;;;;10482910;28;20072;-22
2023/06/07 10:55:53;;;;;;;6.57;2.30;;;23.70;55.40;;;;;;10479514;28;20041;-21
2023/06/07 11:00:56;;;;;;;5.47;2.00;;;24.20;54.80;;;;;;10475547;28;20492;-24
2023/06/07 11:06:06;;;;;;;6.43;2.00;;;24.80;53.10;;;;;;10482083;28;20068;-22
2023/06/07 11:11:53;;;;;;;9.15;2.42;;;24.30;53.40;;;;;;10486440;28;20060;-23
2023/06/07 11:16:55;;;;;;;4.80;1.90;;;22.90;57.50;;;;;;10478079;28;20132;-23
2023/06/07 11:22:05;;;;;;;3.10;1.60;;;25.00;53.80;;;;;;10485548;28;20131;-23
2023/06/07 11:27:14;;;;;;;7.13;2.00;;;25.20;52.60;;;;;;10488152;28;20048;-22
2023/06/07 11:32:15;;;;;;;3.88;1.77;;;25.10;53.00;;;;;;10491621;28;20068;-23
2023/06/07 11:37:18;;;;;;;5.03;1.45;;;25.30;52.50;;;;;;10497939;28;20055;-23
2023/06/07 11:42:25;;;;;;;8.52;3.25;;;24.80;54.30;;;;;;10492083;28;20053;-23
2023/06/07 11:47:27;;;;;;;5.78;1.60;;;24.70;53.70;;;;;;10493907;28;20469;-21
2023/06/07 11:52:30;;;;;;;14.38;3.75;;;25.20;53.80;;;;;;10490115;28;20429;-23
2023/06/07 11:57:36;;;;;;;3.58;1.55;;;25.00;53.30;;;;;;10487089;28;20064;-22
2023/06/07 12:02:39;;;;;;;5.55;2.00;;;25.20;53.80;;;;;;10475221;28;20491;-21
2023/06/07 12:07:43;;;;;;;7.43;2.92;;;25.30;52.60;;;;;;10472023;28;20393;-21
2023/06/07 12:12:45;;;;;;;5.35;1.52;;;25.90;52.30;;;;;;10487171;28;20424;-23
2023/06/07 12:17:46;;;;;;;8.32;2.10;;;26.00;52.30;;;;;;10501740;28;20129;-27
2023/06/07 12:22:50;;;;;;;10.60;2.25;;;25.20;53.70;;;;;;10490665;28;20535;-23
2023/06/07 12:27:52;;;;;;;4.50;1.80;;;25.00;53.00;;;;;;10492539;28;20127;-22
2023/06/07 12:32:58;;;;;;;8.27;2.35;;;25.30;53.50;;;;;;10502372;28;20052;-23
2023/06/07 12:38:03;;;;;;;4.50;1.75;;;24.90;53.70;;;;;;10494207;28;20068;-23
2023/06/07 12:43:05;;;;;;;13.93;3.33;;;26.00;52.60;;;;;;10493232;28;20069;-22
2023/06/07 12:48:06;;;;;;;9.55;1.98;;;25.40;52.80;;;;;;10492061;28;20059;-23
2023/06/07 12:53:10;;;;;;;10.65;2.55;;;26.00;52.80;;;;;;10491557;28;20059;-23
2023/06/07 12:58:12;;;;;;;6.13;2.17;;;25.70;53.00;;;;;;10493887;28;20544;-23
2023/06/07 13:03:17;;;;;;;8.30;2.83;;;25.90;53.40;;;;;;10488092;28;20128;-25
2023/06/07 13:08:20;;;;;;;7.28;2.58;;;25.60;53.50;;;;;;10494144;28;20581;-24
2023/06/07 13:13:22;;;;;;;3.88;1.58;;;26.00;53.00;;;;;;10482445;28;20044;-23
2023/06/07 13:18:24;;;;;;;7.25;3.17;;;26.10;53.50;;;;;;10487807;28;20408;-22
2023/06/07 13:23:27;;;;;;;14.77;3.20;;;26.30;52.60;;;;;;10495018;28;20048;-25
2023/06/07 13:28:29;;;;;;;4.95;2.67;;;26.50;52.10;;;;;;10500194;28;20048;-24
2023/06/07 13:33:31;;;;;;;10.15;2.50;;;26.50;53.70;;;;;;10484972;28;20084;-22
2023/06/07 13:38:34;;;;;;;5.88;1.88;;;26.40;53.10;;;;;;10486573;28;20040;-23
2023/06/07 13:43:36;;;;;;;4.80;2.05;;;27.00;52.70;;;;;;10475988;28;20102;-24
2023/06/07 13:48:41;;;;;;;9.30;2.42;;;27.00;51.80;;;;;;10496852;28;20127;-23
2023/06/07 13:53:44;;;;;;;5.47;2.60;;;26.80;53.20;;;;;;10485344;28;20096;-23
2023/06/07 13:58:46;;;;;;;6.45;2.47;;;27.50;52.10;;;;;;10502927;28;20550;-23
2023/06/07 14:03:47;;;;;;;20.55;2.80;;;27.30;52.70;;;;;;10478000;28;20131;-23
2023/06/07 14:08:51;;;;;;;9.77;2.88;;;27.30;51.40;;;;;;10488634;28;20497;-25
2023/06/07 14:13:53;;;;;;;9.82;2.20;;;27.30;51.00;;;;;;10489036;28;20140;-24
2023/06/07 14:18:55;;;;;;;12.27;3.30;;;27.30;51.50;;;;;;10490604;28;20492;-24
2023/06/07 14:23:58;;;;;;;5.75;1.92;;;26.70;52.90;;;;;;10489562;28;20059;-24
2023/06/07 14:29:00;;;;;;;6.50;2.05;;;27.20;54.10;;;;;;10488161;28;20080;-24
2023/06/07 14:34:01;;;;;;;11.13;2.35;;;27.80;53.40;;;;;;10486025;28;20139;-23
2023/06/07 14:39:05;;;;;;;16.98;3.13;;;27.80;53.00;;;;;;10494665;28;20075;-23
2023/06/07 14:44:06;;;;;;;8.80;2.22;;;28.30;52.00;;;;;;10478494;28;20132;-23
2023/06/07 14:49:08;;;;;;;8.75;2.55;;;28.20;53.30;;;;;;10471696;28;20118;-23
2023/06/07 14:54:12;;;;;;;5.00;2.08;;;28.50;52.40;;;;;;10483890;28;20139;-24
2023/06/07 14:59:14;;;;;;;5.50;2.10;;;28.40;51.10;;;;;;10486420;28;20452;-28
2023/06/07 15:04:16;;;;;;;6.25;2.28;;;28.40;54.00;;;;;;10484803;28;20068;-25
2023/06/07 15:09:19;;;;;;;9.48;2.53;;;28.40;54.10;;;;;;10487661;28;20040;-24
2023/06/07 15:14:21;;;;;;;9.02;2.05;;;28.30;54.30;;;;;;10480888;28;20139;-22
2023/06/07 15:19:23;;;;;;;13.15;3.47;;;28.60;54.10;;;;;;10479981;28;20135;-22
2023/06/07 15:24:26;;;;;;;7.50;2.95;;;28.70;49.90;;;;;;10485884;28;20508;-23
2023/06/07 15:29:28;;;;;;;6.05;2.03;;;29.20;53.60;;;;;;10483144;28;20076;-23
2023/06/07 15:34:31;;;;;;;6.97;1.90;;;29.40;53.60;;;;;;10503068;28;20087;-23
2023/06/07 15:39:34;;;;;;;8.75;2.60;;;29.40;52.70;;;;;;10490585;28;20475;-25
2023/06/07 15:44:36;;;;;;;4.28;1.88;;;29.40;53.00;;;;;;10487254;28;20060;-23
2023/06/07 15:49:38;;;;;;;12.10;2.60;;;29.50;52.10;;;;;;10483021;28;20049;-23
2023/06/07 15:54:41;;;;;;;9.35;3.13;;;29.40;51.40;;;;;;10477355;28;20050;-23
2023/06/07 15:59:43;;;;;;;5.25;2.33;;;29.10;51.70;;;;;;10474457;28;20456;-26
2023/06/07 16:04:45;;;;;;;10.52;2.33;;;29.50;52.60;;;;;;10479703;28;20106;-23
2023/06/07 16:09:48;;;;;;;14.57;3.90;;;29.70;52.80;;;;;;10471122;28;20452;-23
2023/06/07 16:14:50;;;;;;;11.68;2.50;;;29.40;52.80;;;;;;10468441;28;20080;-23
2023/06/07 16:19:52;;;;;;;11.05;3.42;;;30.00;53.60;;;;;;10486778;28;20040;-22
2023/06/07 16:24:56;;;;;;;10.00;3.50;;;29.90;52.40;;;;;;10492245;28;20485;-23
2023/06/07 16:29:58;;;;;;;6.38;2.03;;;30.60;56.40;;;;;;10489432;28;20446;-22
2023/06/07 16:35:00;;;;;;;7.03;3.08;;;30.30;55.60;;;;;;10500100;28;20583;-22
2023/06/07 16:40:04;;;;;;;9.27;2.75;;;30.50;51.30;;;;;;10484665;28;20091;-22
2023/06/07 16:45:08;;;;;;;4.07;2.08;;;30.60;53.20;;;;;;10491004;28;20047;-23
2023/06/07 16:50:10;;;;;;;6.80;2.55;;;30.80;53.50;;;;;;10492339;28;20049;-24
2023/06/07 16:55:14;;;;;;;5.30;2.38;;;31.00;53.90;;;;;;10497397;28;20124;-23
2023/06/07 17:00:17;;;;;;;3.45;2.15;;;31.50;54.10;;;;;;10487581;28;20421;-23
2023/06/07 17:05:19;;;;;;;5.55;2.22;;;31.30;54.40;;;;;;10475224;28;20059;-23
2023/06/07 17:10:23;;;;;;;4.57;1.90;;;31.60;54.70;;;;;;10485792;28;20044;-24
2023/06/07 17:15:27;;;;;;;6.22;2.15;;;31.80;57.80;;;;;;10479932;28;20086;-24
2023/06/07 17:20:29;;;;;;;5.35;2.33;;;31.40;52.20;;;;;;10484167;28;20049;-23
2023/06/07 17:25:32;;;;;;;7.60;2.00;;;31.20;51.30;;;;;;10481369;28;20072;-23
2023/06/07 17:30:38;;;;;;;8.63;2.30;;;31.20;51.10;;;;;;10483606;28;20056;-24
2023/06/07 17:35:40;;;;;;;3.88;2.30;;;31.10;50.60;;;;;;10485604;28;20052;-28
2023/06/07 17:40:44;;;;;;;7.32;2.75;;;31.20;51.50;;;;;;10486498;28;20041;-22
2023/06/07 17:45:45;;;;;;;6.28;2.50;;;31.20;51.80;;;;;;10490025;28;20064;-22
2023/06/07 17:50:47;;;;;;;12.32;2.60;;;31.30;50.80;;;;;;10491126;28;20053;-24
2023/06/07 17:55:50;;;;;;;5.55;2.38;;;31.10;50.60;;;;;;10373187;28;20061;-23
2023/06/07 18:00:52;;;;;;;4.28;1.95;;;31.20;49.90;;;;;;10442881;28;20131;-26
2023/06/07 18:05:54;;;;;;;4.53;1.77;;;31.00;49.60;;;;;;10455526;28;20405;-24
2023/06/07 18:10:59;;;;;;;7.80;2.30;;;31.00;49.40;;;;;;10438181;28;20075;-23
2023/06/07 18:16:01;;;;;;;11.88;2.70;;;31.00;49.30;;;;;;10450949;28;20059;-23
2023/06/07 18:21:03;;;;;;;6.30;1.90;;;30.90;49.30;;;;;;10448168;28;20525;-23
2023/06/07 18:26:06;;;;;;;7.65;2.83;;;30.90;48.90;;;;;;10448195;28;20102;-23
2023/06/07 18:31:08;;;;;;;5.88;2.22;;;30.90;49.10;;;;;;10443400;28;20042;-24
2023/06/07 18:36:10;;;;;;;7.65;2.85;;;30.80;49.40;;;;;;10440442;28;20056;-23
2023/06/07 18:41:13;;;;;;;7.47;2.63;;;30.80;49.20;;;;;;10435143;28;20045;-23
2023/06/07 18:46:15;;;;;;;4.78;2.40;;;30.70;49.00;;;;;;10430896;28;20051;-25
2023/06/07 18:51:17;;;;;;;8.52;2.60;;;30.70;49.20;;;;;;10452141;28;20448;-23
2023/06/07 18:56:21;;;;;;;7.88;2.33;;;30.70;49.20;;;;;;10442913;28;20088;-22
2023/06/07 19:01:23;;;;;;;6.43;2.05;;;30.70;49.30;;;;;;10443470;28;20045;-23
2023/06/07 19:06:25;;;;;;;7.65;2.50;;;30.60;49.20;;;;;;10454573;28;20569;-23
2023/06/07 19:11:28;;;;;;;8.02;2.40;;;30.50;49.20;;;;;;10429970;28;20084;-23
2023/06/07 19:16:32;;;;;;;7.50;2.50;;;30.50;49.20;;;;;;10446336;28;20110;-23
2023/06/07 19:21:34;;;;;;;9.15;3.00;;;30.40;49.20;;;;;;10446071;28;20080;-23
2023/06/07 19:26:37;;;;;;;6.60;2.03;;;30.30;49.20;;;;;;10433381;28;20038;-23
2023/06/07 19:31:39;;;;;;;9.23;2.70;;;30.30;49.30;;;;;;10448507;28;20136;-23
2023/06/07 19:36:41;;;;;;;6.43;2.42;;;30.20;49.40;;;;;;10444864;28;20084;-23
2023/06/07 19:41:45;;;;;;;6.30;2.50;;;30.10;49.30;;;;;;10452196;28;20045;-24
2023/06/07 19:46:47;;;;;;;5.97;2.45;;;30.10;49.40;;;;;;10451908;28;20128;-23
2023/06/07 19:51:49;;;;;;;8.27;2.40;;;30.00;49.30;;;;;;10435105;28;20056;-23
2023/06/07 19:56:52;;;;;;;6.88;2.63;;;29.90;49.40;;;;;;10450572;28;20144;-23
2023/06/07 20:01:55;;;;;;;10.15;2.97;;;29.90;49.60;;;;;;10439637;28;20060;-22
2023/06/07 20:06:57;;;;;;;6.85;2.38;;;29.80;49.50;;;;;;10436829;28;20056;-22
2023/06/07 20:12:01;;;;;;;8.63;2.33;;;29.70;49.60;;;;;;10451438;28;20056;-23
2023/06/07 20:17:03;;;;;;;9.45;3.97;;;29.60;49.40;;;;;;10457020;28;20057;-22
2023/06/07 20:22:06;;;;;;;8.65;2.83;;;29.50;49.50;;;;;;10452963;28;20056;-22
2023/06/07 20:27:09;;;;;;;7.35;2.78;;;29.50;49.70;;;;;;10446177;28;20045;-24
2023/06/07 20:32:11;;;;;;;9.32;2.80;;;29.40;50.30;;;;;;10443437;28;20072;-25
2023/06/07 20:37:13;;;;;;;8.57;3.13;;;29.40;49.80;;;;;;10434411;28;20060;-23
2023/06/07 20:42:16;;;;;;;7.68;3.63;;;29.30;49.80;;;;;;10449484;28;20095;-28
2023/06/07 20:47:18;;;;;;;9.60;3.10;;;29.30;50.10;;;;;;10456043;28;20580;-23
2023/06/07 20:52:20;;;;;;;12.00;2.75;;;29.20;50.30;;;;;;10448765;28;20128;-23
2023/06/07 20:57:23;;;;;;;10.18;2.50;;;29.20;50.40;;;;;;10452584;28;20084;-23
2023/06/07 21:02:25;;;;;;;5.18;2.47;;;29.10;50.50;;;;;;10436055;28;20152;-24
2023/06/07 21:07:27;;;;;;;6.75;2.25;;;29.10;50.60;;;;;;10452334;28;20156;-23
2023/06/07 21:12:30;;;;;;;3.97;2.30;;;29.00;50.60;;;;;;10450354;28;20783;-23
2023/06/07 21:17:33;;;;;;;4.90;2.08;;;28.90;51.30;;;;;;10452240;28;20136;-23
2023/06/07 21:22:35;;;;;;;3.47;2.25;;;28.90;50.70;;;;;;10444700;28;20607;-23
2023/06/07 21:27:38;;;;;;;4.47;2.13;;;28.90;50.80;;;;;;10451979;28;20493;-23
2023/06/07 21:32:40;;;;;;;8.32;2.15;;;28.80;50.80;;;;;;10445219;28;20131;-21
2023/06/07 21:37:42;;;;;;;3.58;1.83;;;28.70;50.80;;;;;;10444024;28;20056;-22
2023/06/07 21:42:45;;;;;;;4.97;2.33;;;28.70;50.90;;;;;;10447004;28;20137;-22
2023/06/07 21:47:47;;;;;;;5.50;2.80;;;28.60;51.00;;;;;;10445165;28;20159;-23
2023/06/07 21:52:50;;;;;;;5.25;2.13;;;28.50;50.90;;;;;;10445980;28;20099;-21
2023/06/07 21:57:54;;;;;;;6.60;2.38;;;28.40;50.90;;;;;;10446970;28;20059;-22
2023/06/07 22:02:55;;;;;;;5.55;2.45;;;28.40;51.00;;;;;;10446231;28;20072;-22
2023/06/07 22:07:57;;;;;;;10.07;3.25;;;28.30;51.00;;;;;;10445759;28;20044;-22
2023/06/07 22:13:01;;;;;;;8.35;2.65;;;28.30;51.00;;;;;;10440943;28;20136;-24
2023/06/07 22:18:04;;;;;;;4.53;2.80;;;28.20;51.10;;;;;;10441259;28;20076;-22
2023/06/07 22:23:07;;;;;;;5.55;2.78;;;28.20;51.20;;;;;;10428815;28;20056;-22
2023/06/07 22:28:12;;;;;;;6.90;2.75;;;28.10;51.20;;;;;;10437900;28;20064;-23
2023/06/07 22:33:13;;;;;;;5.53;2.70;;;28.10;51.20;;;;;;10443825;28;20466;-23
2023/06/07 22:38:15;;;;;;;4.72;3.08;;;28.00;51.20;;;;;;10444368;28;20106;-22
2023/06/07 22:43:19;;;;;;;5.90;3.17;;;28.00;51.30;;;;;;10422605;28;20061;-23
2023/06/07 22:48:21;;;;;;;6.40;2.83;;;27.90;51.20;;;;;;10445247;28;20147;-24
2023/06/07 22:53:24;;;;;;;3.83;2.50;;;27.90;51.30;;;;;;10436274;28;20145;-24
2023/06/07 22:58:27;;;;;;;6.30;2.65;;;27.90;51.40;;;;;;10448382;28;20049;-23
2023/06/07 23:03:30;;;;;;;4.82;2.40;;;27.70;51.30;;;;;;10435105;28;20160;-22
2023/06/07 23:08:32;;;;;;;3.75;2.58;;;27.70;51.40;;;;;;10433966;28;20065;-22
2023/06/07 23:13:35;;;;;;;7.05;2.75;;;27.60;51.40;;;;;;10443046;28;20080;-24
2023/06/07 23:18:37;;;;;;;6.05;2.90;;;27.60;51.50;;;;;;10444703;28;20049;-23
2023/06/07 23:23:39;;;;;;;5.38;2.90;;;27.60;51.60;;;;;;10446874;28;20045;-23
2023/06/07 23:28:42;;;;;;;4.30;2.70;;;27.50;51.50;;;;;;10447136;28;20095;-24
2023/06/07 23:33:44;;;;;;;3.58;2.00;;;27.50;51.60;;;;;;10456170;28;20497;-23
2023/06/07 23:38:46;;;;;;;4.55;2.38;;;27.40;51.60;;;;;;10451981;28;20490;-22
2023/06/07 23:43:50;;;;;;;4.10;2.55;;;27.30;51.60;;;;;;10449012;28;20072;-23
2023/06/07 23:48:52;;;;;;;5.65;2.70;;;27.30;51.60;;;;;;10440126;28;20486;-24
2023/06/07 23:53:54;;;;;;;9.15;2.70;;;27.20;51.60;;;;;;10443693;28;20141;-23
2023/06/07 23:58:57;;;;;;;3.42;1.90;;;27.20;51.60;;;;;;10454583;28;20527;-23
